sensor_id;sensor_type;location;lat;lon;timestamp;P1;durP1;ratioP1;P2;durP2;ratioP2
8665;SDS011;4370;48.916;8.380;2023-07-22T00:01:20;2.63;;;2.10;;
8665;SDS011;4370;48.916;8.380;2023-07-22T00:03:45;3.80;;;2.30;;
8665;SDS011;4370;48.916;8.380;2023-07-22T00:06:11;2.63;;;2.30;;
8665;SDS011;4370;48.916;8.380;2023-07-22T00:08:37;2.33;;;2.03;;
8665;SDS011;4370;48.916;8.380;2023-07-22T00:11:06;2.47;;;2.13;;
8665;SDS011;4370;48.916;8.380;2023-07-22T00:13:34;2.40;;;2.10;;
8665;SDS011;4370;48.916;8.380;2023-07-22T00:15:59;2.83;;;2.23;;
8665;SDS011;4370;48.916;8.380;2023-07-22T00:18:26;3.90;;;2.10;;
8665;SDS011;4370;48.916;8.380;2023-07-22T00:20:52;2.60;;;2.00;;
8665;SDS011;4370;48.916;8.380;2023-07-22T00:23:19;2.93;;;2.07;;
8665;SDS011;4370;48.916;8.380;2023-07-22T00:25:45;2.63;;;1.97;;
8665;SDS011;4370;48.916;8.380;2023-07-22T00:28:11;2.57;;;2.13;;
8665;SDS011;4370;48.916;8.380;2023-07-22T00:30:37;3.43;;;2.10;;
8665;SDS011;4370;48.916;8.380;2023-07-22T00:33:03;2.53;;;2.30;;
8665;SDS011;4370;48.916;8.380;2023-07-22T00:35:29;2.40;;;2.20;;
8665;SDS011;4370;48.916;8.380;2023-07-22T00:37:54;2.90;;;2.10;;
8665;SDS011;4370;48.916;8.380;2023-07-22T00:40:20;5.17;;;2.30;;
8665;SDS011;4370;48.916;8.380;2023-07-22T00:42:45;2.20;;;2.00;;
8665;SDS011;4370;48.916;8.380;2023-07-22T00:45:11;2.50;;;2.10;;
8665;SDS011;4370;48.916;8.380;2023-07-22T00:47:37;2.47;;;2.20;;
8665;SDS011;4370;48.916;8.380;2023-07-22T00:50:04;3.40;;;2.40;;
8665;SDS011;4370;48.916;8.380;2023-07-22T00:52:32;2.10;;;1.90;;
8665;SDS011;4370;48.916;8.380;2023-07-22T00:55:01;3.10;;;2.10;;
8665;SDS011;4370;48.916;8.380;2023-07-22T00:57:27;3.87;;;2.40;;
8665;SDS011;4370;48.916;8.380;2023-07-22T00:59:54;2.43;;;2.03;;
8665;SDS011;4370;48.916;8.380;2023-07-22T01:02:20;3.77;;;2.10;;
8665;SDS011;4370;48.916;8.380;2023-07-22T01:04:48;2.53;;;2.20;;
8665;SDS011;4370;48.916;8.380;2023-07-22T01:07:15;2.43;;;2.13;;
8665;SDS011;4370;48.916;8.380;2023-07-22T01:09:42;2.80;;;2.20;;
8665;SDS011;4370;48.916;8.380;2023-07-22T01:12:08;2.60;;;2.37;;
8665;SDS011;4370;48.916;8.380;2023-07-22T01:14:35;3.07;;;2.13;;
8665;SDS011;4370;48.916;8.380;2023-07-22T01:17:02;2.53;;;2.33;;
8665;SDS011;4370;48.916;8.380;2023-07-22T01:19:29;2.87;;;2.50;;
8665;SDS011;4370;48.916;8.380;2023-07-22T01:21:57;4.87;;;2.50;;
8665;SDS011;4370;48.916;8.380;2023-07-22T01:24:25;3.07;;;2.13;;
8665;SDS011;4370;48.916;8.380;2023-07-22T01:26:51;2.97;;;2.37;;
8665;SDS011;4370;48.916;8.380;2023-07-22T01:29:17;2.40;;;2.17;;
8665;SDS011;4370;48.916;8.380;2023-07-22T01:31:45;2.67;;;2.40;;
8665;SDS011;4370;48.916;8.380;2023-07-22T01:34:12;2.90;;;2.07;;
8665;SDS011;4370;48.916;8.380;2023-07-22T01:36:37;4.20;;;2.60;;
8665;SDS011;4370;48.916;8.380;2023-07-22T01:39:04;2.63;;;2.23;;
8665;SDS011;4370;48.916;8.380;2023-07-22T01:41:30;2.97;;;2.30;;
8665;SDS011;4370;48.916;8.380;2023-07-22T01:43:57;3.13;;;2.57;;
8665;SDS011;4370;48.916;8.380;2023-07-22T01:46:26;4.83;;;3.00;;
8665;SDS011;4370;48.916;8.380;2023-07-22T01:48:51;3.30;;;2.40;;
8665;SDS011;4370;48.916;8.380;2023-07-22T01:51:17;3.00;;;2.47;;
8665;SDS011;4370;48.916;8.380;2023-07-22T01:53:42;2.47;;;1.93;;
8665;SDS011;4370;48.916;8.380;2023-07-22T01:56:08;2.97;;;2.37;;
8665;SDS011;4370;48.916;8.380;2023-07-22T01:58:34;2.90;;;2.60;;
8665;SDS011;4370;48.916;8.380;2023-07-22T02:00:59;2.80;;;2.27;;
8665;SDS011;4370;48.916;8.380;2023-07-22T02:03:25;2.90;;;2.30;;
8665;SDS011;4370;48.916;8.380;2023-07-22T02:05:51;3.47;;;2.80;;
8665;SDS011;4370;48.916;8.380;2023-07-22T02:08:17;3.33;;;2.60;;
8665;SDS011;4370;48.916;8.380;2023-07-22T02:10:42;2.80;;;2.40;;
8665;SDS011;4370;48.916;8.380;2023-07-22T02:13:08;3.97;;;2.50;;
8665;SDS011;4370;48.916;8.380;2023-07-22T02:15:34;2.93;;;2.27;;
8665;SDS011;4370;48.916;8.380;2023-07-22T02:18:00;2.40;;;2.07;;
8665;SDS011;4370;48.916;8.380;2023-07-22T02:20:26;5.97;;;2.80;;
8665;SDS011;4370;48.916;8.380;2023-07-22T02:22:54;3.10;;;2.43;;
8665;SDS011;4370;48.916;8.380;2023-07-22T02:25:20;3.30;;;2.40;;
8665;SDS011;4370;48.916;8.380;2023-07-22T02:27:45;3.13;;;2.50;;
8665;SDS011;4370;48.916;8.380;2023-07-22T02:30:11;2.90;;;2.20;;
8665;SDS011;4370;48.916;8.380;2023-07-22T02:32:41;2.60;;;2.40;;
8665;SDS011;4370;48.916;8.380;2023-07-22T02:35:07;2.60;;;2.40;;
8665;SDS011;4370;48.916;8.380;2023-07-22T02:37:33;2.80;;;2.27;;
8665;SDS011;4370;48.916;8.380;2023-07-22T02:40:01;3.20;;;2.70;;
8665;SDS011;4370;48.916;8.380;2023-07-22T02:42:32;2.57;;;2.30;;
8665;SDS011;4370;48.916;8.380;2023-07-22T02:45:01;3.87;;;2.73;;
8665;SDS011;4370;48.916;8.380;2023-07-22T02:47:28;3.33;;;2.63;;
8665;SDS011;4370;48.916;8.380;2023-07-22T02:49:53;2.60;;;2.40;;
8665;SDS011;4370;48.916;8.380;2023-07-22T02:52:20;3.13;;;2.13;;
8665;SDS011;4370;48.916;8.380;2023-07-22T02:55:03;2.60;;;2.20;;
8665;SDS011;4370;48.916;8.380;2023-07-22T02:57:33;4.20;;;2.93;;
8665;SDS011;4370;48.916;8.380;2023-07-22T02:59:59;2.70;;;2.50;;
8665;SDS011;4370;48.916;8.380;2023-07-22T03:02:24;2.70;;;2.30;;
8665;SDS011;4370;48.916;8.380;2023-07-22T03:04:50;2.70;;;2.10;;
8665;SDS011;4370;48.916;8.380;2023-07-22T03:07:15;2.80;;;2.57;;
8665;SDS011;4370;48.916;8.380;2023-07-22T03:09:41;2.50;;;2.23;;
8665;SDS011;4370;48.916;8.380;2023-07-22T03:12:08;3.20;;;2.60;;
8665;SDS011;4370;48.916;8.380;2023-07-22T03:14:33;3.23;;;2.57;;
8665;SDS011;4370;48.916;8.380;2023-07-22T03:17:01;3.63;;;2.70;;
8665;SDS011;4370;48.916;8.380;2023-07-22T03:19:29;2.67;;;2.30;;
8665;SDS011;4370;48.916;8.380;2023-07-22T03:21:54;2.57;;;2.27;;
8665;SDS011;4370;48.916;8.380;2023-07-22T03:24:20;3.60;;;3.00;;
8665;SDS011;4370;48.916;8.380;2023-07-22T03:26:45;6.47;;;3.40;;
8665;SDS011;4370;48.916;8.380;2023-07-22T03:29:11;4.10;;;2.60;;
8665;SDS011;4370;48.916;8.380;2023-07-22T03:31:36;3.37;;;2.57;;
8665;SDS011;4370;48.916;8.380;2023-07-22T03:34:02;3.03;;;2.60;;
8665;SDS011;4370;48.916;8.380;2023-07-22T03:36:28;4.00;;;2.97;;
8665;SDS011;4370;48.916;8.380;2023-07-22T03:38:58;3.30;;;2.73;;
8665;SDS011;4370;48.916;8.380;2023-07-22T03:41:24;3.50;;;2.87;;
8665;SDS011;4370;48.916;8.380;2023-07-22T03:43:50;9.53;;;3.20;;
8665;SDS011;4370;48.916;8.380;2023-07-22T03:46:16;6.17;;;3.10;;
8665;SDS011;4370;48.916;8.380;2023-07-22T03:48:41;5.03;;;2.90;;
8665;SDS011;4370;48.916;8.380;2023-07-22T03:51:07;3.70;;;2.87;;
8665;SDS011;4370;48.916;8.380;2023-07-22T03:53:34;2.93;;;2.63;;
8665;SDS011;4370;48.916;8.380;2023-07-22T03:55:59;3.37;;;2.60;;
8665;SDS011;4370;48.916;8.380;2023-07-22T03:58:26;4.40;;;2.50;;
8665;SDS011;4370;48.916;8.380;2023-07-22T04:00:51;3.43;;;2.57;;
8665;SDS011;4370;48.916;8.380;2023-07-22T04:03:17;3.33;;;2.67;;
8665;SDS011;4370;48.916;8.380;2023-07-22T04:05:42;3.07;;;2.50;;
8665;SDS011;4370;48.916;8.380;2023-07-22T04:08:08;2.70;;;2.50;;
8665;SDS011;4370;48.916;8.380;2023-07-22T04:10:35;5.63;;;3.07;;
8665;SDS011;4370;48.916;8.380;2023-07-22T04:13:00;2.67;;;2.40;;
8665;SDS011;4370;48.916;8.380;2023-07-22T04:15:26;8.90;;;3.73;;
8665;SDS011;4370;48.916;8.380;2023-07-22T04:17:52;5.93;;;3.57;;
8665;SDS011;4370;48.916;8.380;2023-07-22T04:20:17;3.57;;;3.27;;
8665;SDS011;4370;48.916;8.380;2023-07-22T04:22:43;5.80;;;3.23;;
8665;SDS011;4370;48.916;8.380;2023-07-22T04:25:09;4.80;;;2.93;;
8665;SDS011;4370;48.916;8.380;2023-07-22T04:27:36;3.20;;;2.77;;
8665;SDS011;4370;48.916;8.380;2023-07-22T04:30:01;3.53;;;2.90;;
8665;SDS011;4370;48.916;8.380;2023-07-22T04:32:27;4.40;;;3.10;;
8665;SDS011;4370;48.916;8.380;2023-07-22T04:34:53;3.30;;;3.00;;
8665;SDS011;4370;48.916;8.380;2023-07-22T04:37:19;4.00;;;2.80;;
8665;SDS011;4370;48.916;8.380;2023-07-22T04:39:49;4.60;;;2.70;;
8665;SDS011;4370;48.916;8.380;2023-07-22T04:42:15;3.63;;;3.07;;
8665;SDS011;4370;48.916;8.380;2023-07-22T04:44:41;2.77;;;2.30;;
8665;SDS011;4370;48.916;8.380;2023-07-22T04:47:07;2.97;;;2.57;;
8665;SDS011;4370;48.916;8.380;2023-07-22T04:49:32;2.97;;;2.70;;
8665;SDS011;4370;48.916;8.380;2023-07-22T04:51:58;3.13;;;2.63;;
8665;SDS011;4370;48.916;8.380;2023-07-22T04:54:23;3.33;;;2.93;;
8665;SDS011;4370;48.916;8.380;2023-07-22T04:56:49;2.50;;;2.30;;
8665;SDS011;4370;48.916;8.380;2023-07-22T04:59:14;5.40;;;3.10;;
8665;SDS011;4370;48.916;8.380;2023-07-22T05:01:40;4.03;;;2.70;;
8665;SDS011;4370;48.916;8.380;2023-07-22T05:04:06;3.90;;;2.40;;
8665;SDS011;4370;48.916;8.380;2023-07-22T05:06:32;3.67;;;2.60;;
8665;SDS011;4370;48.916;8.380;2023-07-22T05:08:57;3.47;;;2.70;;
8665;SDS011;4370;48.916;8.380;2023-07-22T05:11:23;2.70;;;2.43;;
8665;SDS011;4370;48.916;8.380;2023-07-22T05:13:49;2.77;;;2.47;;
8665;SDS011;4370;48.916;8.380;2023-07-22T05:16:14;4.90;;;2.77;;
8665;SDS011;4370;48.916;8.380;2023-07-22T05:18:40;3.87;;;2.80;;
8665;SDS011;4370;48.916;8.380;2023-07-22T05:21:06;2.97;;;2.50;;
8665;SDS011;4370;48.916;8.380;2023-07-22T05:23:31;4.03;;;2.40;;
8665;SDS011;4370;48.916;8.380;2023-07-22T05:25:57;2.87;;;2.57;;
8665;SDS011;4370;48.916;8.380;2023-07-22T05:28:22;3.33;;;2.40;;
8665;SDS011;4370;48.916;8.380;2023-07-22T05:30:48;2.67;;;2.47;;
8665;SDS011;4370;48.916;8.380;2023-07-22T05:33:15;4.70;;;2.77;;
8665;SDS011;4370;48.916;8.380;2023-07-22T05:35:40;3.10;;;2.33;;
8665;SDS011;4370;48.916;8.380;2023-07-22T05:38:06;3.50;;;2.53;;
8665;SDS011;4370;48.916;8.380;2023-07-22T05:40:32;3.20;;;2.47;;
8665;SDS011;4370;48.916;8.380;2023-07-22T05:42:57;2.77;;;2.40;;
8665;SDS011;4370;48.916;8.380;2023-07-22T05:45:23;3.30;;;2.47;;
8665;SDS011;4370;48.916;8.380;2023-07-22T05:47:49;3.43;;;2.50;;
8665;SDS011;4370;48.916;8.380;2023-07-22T05:50:14;3.90;;;2.40;;
8665;SDS011;4370;48.916;8.380;2023-07-22T05:52:40;3.10;;;2.33;;
8665;SDS011;4370;48.916;8.380;2023-07-22T05:55:05;3.13;;;2.50;;
8665;SDS011;4370;48.916;8.380;2023-07-22T05:57:31;3.33;;;2.40;;
8665;SDS011;4370;48.916;8.380;2023-07-22T05:59:56;6.13;;;2.13;;
8665;SDS011;4370;48.916;8.380;2023-07-22T06:02:22;3.47;;;2.37;;
8665;SDS011;4370;48.916;8.380;2023-07-22T06:04:47;2.80;;;2.20;;
8665;SDS011;4370;48.916;8.380;2023-07-22T06:07:13;2.23;;;2.03;;
8665;SDS011;4370;48.916;8.380;2023-07-22T06:09:38;3.23;;;2.30;;
8665;SDS011;4370;48.916;8.380;2023-07-22T06:12:04;3.70;;;2.30;;
8665;SDS011;4370;48.916;8.380;2023-07-22T06:14:31;2.87;;;2.37;;
8665;SDS011;4370;48.916;8.380;2023-07-22T06:16:57;2.83;;;2.37;;
8665;SDS011;4370;48.916;8.380;2023-07-22T06:19:22;4.40;;;2.40;;
8665;SDS011;4370;48.916;8.380;2023-07-22T06:21:50;2.37;;;2.00;;
8665;SDS011;4370;48.916;8.380;2023-07-22T06:24:16;2.07;;;1.97;;
8665;SDS011;4370;48.916;8.380;2023-07-22T06:26:41;3.50;;;2.40;;
8665;SDS011;4370;48.916;8.380;2023-07-22T06:29:07;4.00;;;2.10;;
8665;SDS011;4370;48.916;8.380;2023-07-22T06:31:33;2.80;;;2.10;;
8665;SDS011;4370;48.916;8.380;2023-07-22T06:33:58;2.80;;;2.30;;
8665;SDS011;4370;48.916;8.380;2023-07-22T06:36:24;2.80;;;2.27;;
8665;SDS011;4370;48.916;8.380;2023-07-22T06:38:50;3.97;;;2.40;;
8665;SDS011;4370;48.916;8.380;2023-07-22T06:41:16;5.17;;;2.40;;
8665;SDS011;4370;48.916;8.380;2023-07-22T06:43:42;4.10;;;2.30;;
8665;SDS011;4370;48.916;8.380;2023-07-22T06:46:08;3.57;;;2.30;;
8665;SDS011;4370;48.916;8.380;2023-07-22T06:48:34;2.83;;;2.27;;
8665;SDS011;4370;48.916;8.380;2023-07-22T06:50:59;4.13;;;2.40;;
8665;SDS011;4370;48.916;8.380;2023-07-22T06:53:25;3.13;;;2.30;;
8665;SDS011;4370;48.916;8.380;2023-07-22T06:55:53;2.40;;;2.10;;
8665;SDS011;4370;48.916;8.380;2023-07-22T06:58:19;4.93;;;2.33;;
8665;SDS011;4370;48.916;8.380;2023-07-22T07:00:46;4.07;;;2.47;;
8665;SDS011;4370;48.916;8.380;2023-07-22T07:03:12;4.43;;;2.70;;
8665;SDS011;4370;48.916;8.380;2023-07-22T07:05:38;3.27;;;2.53;;
8665;SDS011;4370;48.916;8.380;2023-07-22T07:08:06;4.00;;;2.37;;
8665;SDS011;4370;48.916;8.380;2023-07-22T07:10:36;6.57;;;2.50;;
8665;SDS011;4370;48.916;8.380;2023-07-22T07:13:03;3.37;;;2.50;;
8665;SDS011;4370;48.916;8.380;2023-07-22T07:15:29;4.00;;;2.20;;
8665;SDS011;4370;48.916;8.380;2023-07-22T07:17:55;2.93;;;2.20;;
8665;SDS011;4370;48.916;8.380;2023-07-22T07:20:21;3.27;;;2.17;;
8665;SDS011;4370;48.916;8.380;2023-07-22T07:22:46;4.03;;;1.87;;
8665;SDS011;4370;48.916;8.380;2023-07-22T07:25:13;2.63;;;2.30;;
8665;SDS011;4370;48.916;8.380;2023-07-22T07:27:40;2.13;;;1.90;;
8665;SDS011;4370;48.916;8.380;2023-07-22T07:30:06;2.88;;;2.13;;
8665;SDS011;4370;48.916;8.380;2023-07-22T07:32:34;1.90;;;1.70;;
8665;SDS011;4370;48.916;8.380;2023-07-22T07:35:00;2.63;;;2.03;;
8665;SDS011;4370;48.916;8.380;2023-07-22T07:37:26;3.53;;;2.00;;
8665;SDS011;4370;48.916;8.380;2023-07-22T07:39:52;3.97;;;2.40;;
8665;SDS011;4370;48.916;8.380;2023-07-22T07:42:17;2.60;;;2.10;;
8665;SDS011;4370;48.916;8.380;2023-07-22T07:44:43;2.28;;;2.08;;
8665;SDS011;4370;48.916;8.380;2023-07-22T07:47:09;2.30;;;1.80;;
8665;SDS011;4370;48.916;8.380;2023-07-22T07:49:35;3.35;;;2.03;;
8665;SDS011;4370;48.916;8.380;2023-07-22T07:52:05;2.90;;;1.90;;
8665;SDS011;4370;48.916;8.380;2023-07-22T07:54:30;2.15;;;1.95;;
8665;SDS011;4370;48.916;8.380;2023-07-22T07:56:56;2.45;;;2.10;;
8665;SDS011;4370;48.916;8.380;2023-07-22T07:59:21;2.22;;;2.00;;
8665;SDS011;4370;48.916;8.380;2023-07-22T08:01:47;3.33;;;2.00;;
8665;SDS011;4370;48.916;8.380;2023-07-22T08:04:13;3.38;;;2.30;;
8665;SDS011;4370;48.916;8.380;2023-07-22T08:06:38;2.88;;;2.30;;
8665;SDS011;4370;48.916;8.380;2023-07-22T08:09:04;2.60;;;2.30;;
8665;SDS011;4370;48.916;8.380;2023-07-22T08:11:35;2.53;;;2.00;;
8665;SDS011;4370;48.916;8.380;2023-07-22T08:14:03;3.65;;;2.13;;
8665;SDS011;4370;48.916;8.380;2023-07-22T08:16:30;5.57;;;2.47;;
8665;SDS011;4370;48.916;8.380;2023-07-22T08:18:56;2.47;;;2.20;;
8665;SDS011;4370;48.916;8.380;2023-07-22T08:21:21;3.72;;;2.30;;
8665;SDS011;4370;48.916;8.380;2023-07-22T08:23:47;2.25;;;1.95;;
8665;SDS011;4370;48.916;8.380;2023-07-22T08:26:13;2.25;;;1.95;;
8665;SDS011;4370;48.916;8.380;2023-07-22T08:28:43;2.22;;;2.00;;
8665;SDS011;4370;48.916;8.380;2023-07-22T08:31:08;4.65;;;2.13;;
8665;SDS011;4370;48.916;8.380;2023-07-22T08:33:35;2.03;;;1.83;;
8665;SDS011;4370;48.916;8.380;2023-07-22T08:36:00;3.47;;;2.00;;
8665;SDS011;4370;48.916;8.380;2023-07-22T08:38:27;5.10;;;2.00;;
8665;SDS011;4370;48.916;8.380;2023-07-22T08:40:53;2.53;;;1.98;;
8665;SDS011;4370;48.916;8.380;2023-07-22T08:43:20;4.65;;;2.30;;
8665;SDS011;4370;48.916;8.380;2023-07-22T08:45:47;2.95;;;2.00;;
8665;SDS011;4370;48.916;8.380;2023-07-22T08:48:15;2.83;;;1.98;;
8665;SDS011;4370;48.916;8.380;2023-07-22T08:50:50;2.92;;;1.90;;
8665;SDS011;4370;48.916;8.380;2023-07-22T08:53:18;4.25;;;2.17;;
8665;SDS011;4370;48.916;8.380;2023-07-22T08:55:44;3.25;;;2.10;;
8665;SDS011;4370;48.916;8.380;2023-07-22T08:58:11;2.53;;;2.00;;
8665;SDS011;4370;48.916;8.380;2023-07-22T09:00:37;2.08;;;1.83;;
8665;SDS011;4370;48.916;8.380;2023-07-22T09:03:04;2.20;;;2.00;;
8665;SDS011;4370;48.916;8.380;2023-07-22T09:05:33;2.88;;;2.10;;
8665;SDS011;4370;48.916;8.380;2023-07-22T09:08:02;2.45;;;1.95;;
8665;SDS011;4370;48.916;8.380;2023-07-22T09:10:28;2.20;;;1.98;;
8665;SDS011;4370;48.916;8.380;2023-07-22T09:12:54;1.80;;;1.70;;
8665;SDS011;4370;48.916;8.380;2023-07-22T09:15:21;3.67;;;2.08;;
8665;SDS011;4370;48.916;8.380;2023-07-22T09:17:49;2.13;;;1.50;;
8665;SDS011;4370;48.916;8.380;2023-07-22T09:20:16;2.38;;;1.92;;
8665;SDS011;4370;48.916;8.380;2023-07-22T09:22:51;2.38;;;2.05;;
8665;SDS011;4370;48.916;8.380;2023-07-22T09:25:21;2.67;;;1.95;;
8665;SDS011;4370;48.916;8.380;2023-07-22T09:27:51;1.95;;;1.70;;
8665;SDS011;4370;48.916;8.380;2023-07-22T09:32:46;3.67;;;2.08;;
8665;SDS011;4370;48.916;8.380;2023-07-22T09:35:11;2.08;;;1.73;;
8665;SDS011;4370;48.916;8.380;2023-07-22T09:37:40;2.30;;;1.77;;
8665;SDS011;4370;48.916;8.380;2023-07-22T09:40:16;5.82;;;1.92;;
8665;SDS011;4370;48.916;8.380;2023-07-22T09:42:56;3.30;;;1.90;;
8665;SDS011;4370;48.916;8.380;2023-07-22T09:45:25;3.33;;;1.60;;
8665;SDS011;4370;48.916;8.380;2023-07-22T09:47:54;2.50;;;1.75;;
8665;SDS011;4370;48.916;8.380;2023-07-22T09:50:21;2.55;;;1.95;;
8665;SDS011;4370;48.916;8.380;2023-07-22T09:52:49;2.63;;;1.95;;
8665;SDS011;4370;48.916;8.380;2023-07-22T09:55:17;2.15;;;1.90;;
8665;SDS011;4370;48.916;8.380;2023-07-22T09:57:50;2.15;;;1.70;;
8665;SDS011;4370;48.916;8.380;2023-07-22T10:00:20;2.45;;;1.70;;
8665;SDS011;4370;48.916;8.380;2023-07-22T10:02:48;2.22;;;1.60;;
8665;SDS011;4370;48.916;8.380;2023-07-22T10:05:19;3.45;;;1.73;;
8665;SDS011;4370;48.916;8.380;2023-07-22T10:07:46;2.30;;;1.98;;
8665;SDS011;4370;48.916;8.380;2023-07-22T10:10:15;3.25;;;1.80;;
8665;SDS011;4370;48.916;8.380;2023-07-22T10:12:45;2.00;;;1.80;;
8665;SDS011;4370;48.916;8.380;2023-07-22T10:15:12;2.45;;;1.73;;
8665;SDS011;4370;48.916;8.380;2023-07-22T10:17:39;4.45;;;1.92;;
8665;SDS011;4370;48.916;8.380;2023-07-22T10:20:06;3.05;;;1.85;;
8665;SDS011;4370;48.916;8.380;2023-07-22T10:22:37;1.98;;;1.83;;
8665;SDS011;4370;48.916;8.380;2023-07-22T10:25:05;2.65;;;1.70;;
8665;SDS011;4370;48.916;8.380;2023-07-22T10:27:34;2.70;;;1.70;;
8665;SDS011;4370;48.916;8.380;2023-07-22T10:30:00;2.78;;;1.80;;
8665;SDS011;4370;48.916;8.380;2023-07-22T10:32:32;2.42;;;1.73;;
8665;SDS011;4370;48.916;8.380;2023-07-22T10:34:59;1.90;;;1.70;;
8665;SDS011;4370;48.916;8.380;2023-07-22T10:37:29;2.08;;;1.60;;
8665;SDS011;4370;48.916;8.380;2023-07-22T10:40:15;2.53;;;1.88;;
8665;SDS011;4370;48.916;8.380;2023-07-22T10:45:24;1.85;;;1.67;;
8665;SDS011;4370;48.916;8.380;2023-07-22T10:50:38;2.05;;;1.85;;
8665;SDS011;4370;48.916;8.380;2023-07-22T10:53:06;2.15;;;1.80;;
8665;SDS011;4370;48.916;8.380;2023-07-22T10:55:32;2.65;;;1.77;;
8665;SDS011;4370;48.916;8.380;2023-07-22T10:58:01;2.63;;;2.00;;
8665;SDS011;4370;48.916;8.380;2023-07-22T11:00:30;2.38;;;1.75;;
8665;SDS011;4370;48.916;8.380;2023-07-22T11:03:13;2.53;;;1.98;;
8665;SDS011;4370;48.916;8.380;2023-07-22T11:05:50;1.67;;;1.58;;
8665;SDS011;4370;48.916;8.380;2023-07-22T11:11:18;1.92;;;1.50;;
8665;SDS011;4370;48.916;8.380;2023-07-22T11:13:46;2.80;;;2.10;;
8665;SDS011;4370;48.916;8.380;2023-07-22T11:16:11;2.40;;;2.00;;
8665;SDS011;4370;48.916;8.380;2023-07-22T11:18:39;4.43;;;2.08;;
8665;SDS011;4370;48.916;8.380;2023-07-22T11:21:12;1.98;;;1.80;;
8665;SDS011;4370;48.916;8.380;2023-07-22T11:23:37;2.75;;;1.90;;
8665;SDS011;4370;48.916;8.380;2023-07-22T11:26:03;2.15;;;1.70;;
8665;SDS011;4370;48.916;8.380;2023-07-22T11:28:32;4.53;;;1.90;;
8665;SDS011;4370;48.916;8.380;2023-07-22T11:30:57;2.08;;;1.90;;
8665;SDS011;4370;48.916;8.380;2023-07-22T11:33:24;2.75;;;2.20;;
8665;SDS011;4370;48.916;8.380;2023-07-22T11:35:49;3.00;;;1.80;;
8665;SDS011;4370;48.916;8.380;2023-07-22T11:38:15;3.30;;;1.95;;
8665;SDS011;4370;48.916;8.380;2023-07-22T11:40:40;3.17;;;1.75;;
8665;SDS011;4370;48.916;8.380;2023-07-22T11:43:06;2.25;;;2.00;;
8665;SDS011;4370;48.916;8.380;2023-07-22T11:45:32;2.45;;;1.85;;
8665;SDS011;4370;48.916;8.380;2023-07-22T11:48:08;2.22;;;1.70;;
8665;SDS011;4370;48.916;8.380;2023-07-22T11:50:37;3.97;;;1.98;;
8665;SDS011;4370;48.916;8.380;2023-07-22T11:53:05;2.80;;;2.08;;
8665;SDS011;4370;48.916;8.380;2023-07-22T11:55:34;1.98;;;1.77;;
8665;SDS011;4370;48.916;8.380;2023-07-22T11:58:00;2.22;;;1.80;;
8665;SDS011;4370;48.916;8.380;2023-07-22T12:00:26;2.40;;;1.92;;
8665;SDS011;4370;48.916;8.380;2023-07-22T12:02:52;2.30;;;1.98;;
8665;SDS011;4370;48.916;8.380;2023-07-22T12:05:22;2.92;;;1.92;;
8665;SDS011;4370;48.916;8.380;2023-07-22T12:07:47;1.75;;;1.65;;
8665;SDS011;4370;48.916;8.380;2023-07-22T12:10:13;2.50;;;1.75;;
8665;SDS011;4370;48.916;8.380;2023-07-22T12:12:43;2.22;;;1.63;;
8665;SDS011;4370;48.916;8.380;2023-07-22T12:15:14;3.47;;;1.98;;
8665;SDS011;4370;48.916;8.380;2023-07-22T12:17:52;1.73;;;1.50;;
8665;SDS011;4370;48.916;8.380;2023-07-22T12:20:23;2.00;;;1.70;;
8665;SDS011;4370;48.916;8.380;2023-07-22T12:22:51;2.30;;;1.60;;
8665;SDS011;4370;48.916;8.380;2023-07-22T12:25:17;3.00;;;1.80;;
8665;SDS011;4370;48.916;8.380;2023-07-22T12:27:43;3.13;;;1.70;;
8665;SDS011;4370;48.916;8.380;2023-07-22T12:30:09;2.78;;;1.80;;
8665;SDS011;4370;48.916;8.380;2023-07-22T12:32:35;2.50;;;2.00;;
8665;SDS011;4370;48.916;8.380;2023-07-22T12:35:00;1.90;;;1.70;;
8665;SDS011;4370;48.916;8.380;2023-07-22T12:37:28;3.75;;;1.85;;
8665;SDS011;4370;48.916;8.380;2023-07-22T12:39:54;1.73;;;1.60;;
8665;SDS011;4370;48.916;8.380;2023-07-22T12:42:21;1.92;;;1.73;;
8665;SDS011;4370;48.916;8.380;2023-07-22T12:44:46;2.13;;;1.80;;
8665;SDS011;4370;48.916;8.380;2023-07-22T12:47:12;1.92;;;1.70;;
8665;SDS011;4370;48.916;8.380;2023-07-22T12:49:38;2.70;;;1.85;;
8665;SDS011;4370;48.916;8.380;2023-07-22T12:52:04;2.17;;;1.98;;
8665;SDS011;4370;48.916;8.380;2023-07-22T12:54:33;1.92;;;1.77;;
8665;SDS011;4370;48.916;8.380;2023-07-22T12:57:03;2.25;;;1.98;;
8665;SDS011;4370;48.916;8.380;2023-07-22T12:59:31;2.00;;;1.60;;
8665;SDS011;4370;48.916;8.380;2023-07-22T13:01:56;2.30;;;1.60;;
8665;SDS011;4370;48.916;8.380;2023-07-22T13:04:25;2.33;;;1.92;;
8665;SDS011;4370;48.916;8.380;2023-07-22T13:06:51;4.78;;;1.83;;
8665;SDS011;4370;48.916;8.380;2023-07-22T13:09:17;4.80;;;2.33;;
8665;SDS011;4370;48.916;8.380;2023-07-22T13:11:43;2.13;;;1.70;;
8665;SDS011;4370;48.916;8.380;2023-07-22T13:14:10;2.10;;;1.70;;
8665;SDS011;4370;48.916;8.380;2023-07-22T13:16:36;3.25;;;1.70;;
8665;SDS011;4370;48.916;8.380;2023-07-22T13:19:03;2.35;;;1.77;;
8665;SDS011;4370;48.916;8.380;2023-07-22T13:21:29;3.05;;;2.03;;
8665;SDS011;4370;48.916;8.380;2023-07-22T13:23:56;2.83;;;1.73;;
8665;SDS011;4370;48.916;8.380;2023-07-22T13:26:22;3.75;;;1.85;;
8665;SDS011;4370;48.916;8.380;2023-07-22T13:28:50;7.45;;;1.90;;
8665;SDS011;4370;48.916;8.380;2023-07-22T13:31:17;2.38;;;1.90;;
8665;SDS011;4370;48.916;8.380;2023-07-22T13:33:44;2.90;;;2.10;;
8665;SDS011;4370;48.916;8.380;2023-07-22T13:36:09;2.95;;;2.22;;
8665;SDS011;4370;48.916;8.380;2023-07-22T13:38:36;2.53;;;2.25;;
8665;SDS011;4370;48.916;8.380;2023-07-22T13:41:03;3.10;;;1.85;;
8665;SDS011;4370;48.916;8.380;2023-07-22T13:43:28;2.80;;;2.10;;
8665;SDS011;4370;48.916;8.380;2023-07-22T13:45:57;6.55;;;2.38;;
8665;SDS011;4370;48.916;8.380;2023-07-22T13:48:23;2.42;;;1.98;;
8665;SDS011;4370;48.916;8.380;2023-07-22T13:50:49;3.08;;;2.05;;
8665;SDS011;4370;48.916;8.380;2023-07-22T13:53:14;2.38;;;2.08;;
8665;SDS011;4370;48.916;8.380;2023-07-22T13:55:41;2.83;;;2.30;;
8665;SDS011;4370;48.916;8.380;2023-07-22T13:58:07;3.50;;;1.90;;
8665;SDS011;4370;48.916;8.380;2023-07-22T14:00:33;5.20;;;2.30;;
8665;SDS011;4370;48.916;8.380;2023-07-22T14:02:59;2.38;;;2.00;;
8665;SDS011;4370;48.916;8.380;2023-07-22T14:05:25;2.80;;;2.15;;
8665;SDS011;4370;48.916;8.380;2023-07-22T14:07:50;2.50;;;2.10;;
8665;SDS011;4370;48.916;8.380;2023-07-22T14:10:16;3.95;;;2.15;;
8665;SDS011;4370;48.916;8.380;2023-07-22T14:12:41;2.40;;;2.10;;
8665;SDS011;4370;48.916;8.380;2023-07-22T14:15:07;2.55;;;2.20;;
8665;SDS011;4370;48.916;8.380;2023-07-22T14:17:33;4.75;;;2.17;;
8665;SDS011;4370;48.916;8.380;2023-07-22T14:19:58;3.42;;;2.10;;
8665;SDS011;4370;48.916;8.380;2023-07-22T14:22:24;3.63;;;2.10;;
8665;SDS011;4370;48.916;8.380;2023-07-22T14:24:50;3.83;;;2.20;;
8665;SDS011;4370;48.916;8.380;2023-07-22T14:27:15;2.88;;;2.20;;
8665;SDS011;4370;48.916;8.380;2023-07-22T14:29:43;2.83;;;2.25;;
8665;SDS011;4370;48.916;8.380;2023-07-22T14:32:09;2.50;;;2.28;;
8665;SDS011;4370;48.916;8.380;2023-07-22T14:34:36;2.47;;;2.22;;
8665;SDS011;4370;48.916;8.380;2023-07-22T14:37:01;3.05;;;2.30;;
8665;SDS011;4370;48.916;8.380;2023-07-22T14:39:29;1.88;;;1.73;;
8665;SDS011;4370;48.916;8.380;2023-07-22T14:41:55;3.40;;;2.10;;
8665;SDS011;4370;48.916;8.380;2023-07-22T14:44:21;2.47;;;2.28;;
8665;SDS011;4370;48.916;8.380;2023-07-22T14:46:47;2.47;;;2.25;;
8665;SDS011;4370;48.916;8.380;2023-07-22T14:49:13;3.55;;;2.22;;
8665;SDS011;4370;48.916;8.380;2023-07-22T14:51:39;2.35;;;2.13;;
8665;SDS011;4370;48.916;8.380;2023-07-22T14:54:04;3.95;;;2.00;;
8665;SDS011;4370;48.916;8.380;2023-07-22T14:56:31;3.55;;;2.10;;
8665;SDS011;4370;48.916;8.380;2023-07-22T14:58:57;2.85;;;2.05;;
8665;SDS011;4370;48.916;8.380;2023-07-22T15:01:24;4.90;;;2.20;;
8665;SDS011;4370;48.916;8.380;2023-07-22T15:03:49;2.30;;;2.10;;
8665;SDS011;4370;48.916;8.380;2023-07-22T15:06:15;2.70;;;2.20;;
8665;SDS011;4370;48.916;8.380;2023-07-22T15:08:41;3.28;;;2.50;;
8665;SDS011;4370;48.916;8.380;2023-07-22T15:11:07;2.70;;;2.38;;
8665;SDS011;4370;48.916;8.380;2023-07-22T15:13:33;2.53;;;2.10;;
8665;SDS011;4370;48.916;8.380;2023-07-22T15:15:58;4.93;;;2.78;;
8665;SDS011;4370;48.916;8.380;2023-07-22T15:18:25;2.67;;;2.38;;
8665;SDS011;4370;48.916;8.380;2023-07-22T15:20:53;2.65;;;2.40;;
8665;SDS011;4370;48.916;8.380;2023-07-22T15:23:19;4.15;;;2.97;;